createdAt,value
2023-01-21T00:01:01.385Z,0.86
2023-01-21T00:02:03.320Z,0.85
2023-01-21T00:03:05.320Z,0.84
2023-01-21T00:04:07.170Z,0.85
2023-01-21T00:05:09.255Z,0.85
2023-01-21T00:06:11.667Z,0.85
2023-01-21T00:07:13.562Z,0.85
2023-01-21T00:08:15.353Z,0.84
2023-01-21T00:09:17.301Z,0.84
2023-01-21T00:10:19.233Z,0.84
2023-01-21T00:11:21.105Z,0.85
2023-01-21T00:12:22.869Z,0.87
2023-01-21T00:13:24.621Z,0.89
2023-01-21T00:14:26.580Z,0.88
2023-01-21T00:15:28.479Z,0.89
2023-01-21T00:16:30.397Z,0.89
2023-01-21T00:17:36.098Z,0.86
2023-01-21T00:18:37.863Z,0.85
2023-01-21T00:19:39.644Z,0.87
2023-01-21T00:20:41.419Z,0.88
2023-01-21T00:21:43.243Z,0.89
2023-01-21T00:22:45.059Z,0.89
2023-01-21T00:23:47.033Z,0.91
2023-01-21T00:24:48.804Z,0.89
2023-01-21T00:25:50.691Z,0.86
2023-01-21T00:26:52.907Z,0.87
2023-01-21T00:27:54.874Z,0.84
2023-01-21T00:28:57.278Z,0.83
2023-01-21T00:29:59.070Z,0.82
2023-01-21T00:31:01.846Z,0.80
2023-01-21T00:32:03.722Z,0.80
2023-01-21T00:33:05.493Z,0.80
2023-01-21T00:34:07.370Z,0.79
2023-01-21T00:35:09.338Z,0.79
2023-01-21T00:36:12.284Z,0.79
2023-01-21T00:37:14.045Z,0.80
2023-01-21T00:38:15.725Z,0.79
2023-01-21T00:39:17.472Z,0.76
2023-01-21T00:40:19.393Z,0.77
2023-01-21T00:41:21.337Z,0.73
2023-01-21T00:42:23.207Z,0.72
2023-01-21T00:43:25.072Z,0.70
2023-01-21T00:44:26.985Z,0.70
2023-01-21T00:45:28.801Z,0.69
2023-01-21T00:46:31.742Z,0.70
2023-01-21T00:47:33.554Z,0.72
2023-01-21T00:48:35.401Z,0.72
2023-01-21T00:49:37.181Z,0.71
2023-01-21T00:50:38.982Z,0.72
2023-01-21T00:51:40.910Z,0.71
2023-01-21T00:52:42.765Z,0.70
2023-01-21T00:53:44.683Z,0.71
2023-01-21T00:54:46.981Z,0.74
2023-01-21T00:55:48.839Z,0.73
2023-01-21T00:56:51.098Z,0.73
2023-01-21T00:57:53.427Z,0.74
2023-01-21T00:58:55.741Z,0.74
2023-01-21T00:59:57.781Z,0.74
2023-01-21T01:01:02.938Z,0.73
2023-01-21T01:02:04.813Z,0.71
2023-01-21T01:03:06.633Z,0.74
2023-01-21T01:04:09.038Z,0.73
2023-01-21T01:05:10.853Z,0.74
2023-01-21T01:06:14.218Z,0.74
2023-01-21T01:07:16.125Z,0.73
2023-01-21T01:08:18.032Z,0.73
2023-01-21T01:09:19.849Z,0.71
2023-01-21T01:10:21.702Z,0.71
2023-01-21T01:11:25.520Z,0.69
2023-01-21T01:12:28.505Z,0.65
2023-01-21T01:13:30.635Z,0.67
2023-01-21T01:14:32.641Z,0.66
2023-01-21T01:15:34.524Z,0.68
2023-01-21T01:16:36.459Z,0.69
2023-01-21T01:17:38.259Z,0.68
2023-01-21T01:18:40.468Z,0.68
2023-01-21T01:19:42.330Z,0.66
2023-01-21T01:20:44.700Z,0.66
2023-01-21T01:21:46.761Z,0.65
2023-01-21T01:22:48.507Z,0.65
2023-01-21T01:23:55.030Z,0.70
2023-01-21T01:24:56.907Z,0.68
2023-01-21T01:26:00.219Z,0.67
2023-01-21T01:27:02.083Z,0.66
2023-01-21T01:28:04.998Z,0.64
2023-01-21T01:29:07.371Z,0.60
2023-01-21T01:30:09.538Z,0.60
2023-01-21T01:31:12.958Z,0.60
2023-01-21T01:32:14.759Z,0.63
2023-01-21T01:33:16.592Z,0.65
2023-01-21T01:34:18.679Z,0.62
2023-01-21T01:35:20.563Z,0.63
2023-01-21T01:36:25.613Z,0.59
2023-01-21T01:37:27.347Z,0.56
2023-01-21T01:38:29.321Z,0.60
2023-01-21T01:39:31.681Z,0.63
2023-01-21T01:40:34.405Z,0.64
2023-01-21T01:41:36.391Z,0.66
2023-01-21T01:42:38.340Z,0.69
2023-01-21T01:43:50.752Z,0.71
2023-01-21T01:45:00.263Z,0.74
2023-01-21T01:46:02.118Z,0.76
2023-01-21T01:47:04.873Z,0.74
2023-01-21T01:48:06.903Z,0.71
2023-01-21T01:49:19.836Z,0.69
2023-01-21T01:50:21.869Z,0.67
2023-01-21T01:51:26.909Z,0.68
2023-01-21T01:52:29.958Z,0.67
2023-01-21T01:53:32.421Z,0.61
2023-01-21T01:54:40.209Z,0.60
2023-01-21T01:55:42.561Z,0.60
2023-01-21T01:56:45.629Z,0.62
2023-01-21T01:57:49.415Z,0.60
2023-01-21T01:58:53.406Z,0.62
2023-01-21T01:59:55.445Z,0.63
2023-01-21T02:00:57.865Z,0.60
2023-01-21T02:02:02.770Z,0.59
2023-01-21T02:03:23.450Z,0.62
2023-01-21T02:04:27.701Z,0.61
2023-01-21T02:05:29.764Z,0.62
2023-01-21T02:06:31.770Z,0.63
2023-01-21T02:07:39.516Z,0.63
2023-01-21T02:08:41.807Z,0.63
2023-01-21T02:09:43.683Z,0.61
2023-01-21T02:10:45.515Z,0.59
2023-01-21T02:11:47.632Z,0.54
2023-01-21T02:12:49.431Z,0.55
2023-01-21T02:13:57.040Z,0.59
2023-01-21T02:14:58.893Z,0.63
2023-01-21T02:16:12.206Z,0.66
2023-01-21T02:17:43.571Z,0.64
2023-01-21T02:18:45.325Z,0.69
2023-01-21T02:20:05.770Z,0.69
2023-01-21T02:21:07.571Z,0.70
2023-01-21T02:22:26.552Z,0.69
2023-01-21T02:23:37.639Z,0.68
2023-01-21T02:24:39.383Z,0.65
2023-01-21T02:25:56.459Z,0.64
2023-01-21T02:26:58.184Z,0.64
2023-01-21T02:28:13.547Z,0.63
2023-01-21T02:29:21.394Z,0.64
2023-01-21T02:30:41.914Z,0.65
2023-01-21T02:31:55.923Z,0.68
2023-01-21T02:33:18.991Z,0.68
2023-01-21T02:34:28.670Z,0.65
2023-01-21T02:35:42.469Z,0.64
2023-01-21T02:36:51.727Z,0.66
2023-01-21T02:37:56.613Z,0.64
2023-01-21T02:39:03.108Z,0.65
2023-01-21T02:40:22.893Z,0.66
2023-01-21T02:41:32.693Z,0.61
2023-01-21T02:42:48.054Z,0.60
2023-01-21T02:43:54.213Z,0.57
2023-01-21T02:45:09.592Z,0.60
2023-01-21T02:46:26.628Z,0.62
2023-01-21T02:47:31.263Z,0.62
2023-01-21T02:48:35.713Z,0.62
2023-01-21T02:49:40.320Z,0.64
2023-01-21T02:50:44.944Z,0.62
2023-01-21T02:51:50.361Z,0.62
2023-01-21T02:52:56.356Z,0.58
2023-01-21T02:53:58.270Z,0.58
2023-01-21T02:55:01.319Z,0.57
2023-01-21T02:56:06.065Z,0.57
2023-01-21T02:57:07.834Z,0.57
2023-01-21T02:58:11.387Z,0.57
2023-01-21T02:59:13.460Z,0.58
2023-01-21T03:00:21.357Z,0.58
2023-01-21T03:01:35.510Z,0.60
2023-01-21T03:02:56.255Z,0.60
2023-01-21T03:04:10.928Z,0.60
2023-01-21T03:05:12.776Z,0.58
2023-01-21T03:06:33.196Z,0.58
2023-01-21T03:07:36.034Z,0.57
2023-01-21T03:08:44.902Z,0.57
2023-01-21T03:09:46.755Z,0.56
2023-01-21T03:10:56.907Z,0.57
2023-01-21T03:12:09.352Z,0.56
2023-01-21T03:13:38.926Z,0.50
2023-01-21T03:15:25.666Z,0.51
2023-01-21T03:16:47.955Z,0.54
2023-01-21T03:17:52.479Z,0.56
2023-01-21T03:18:54.799Z,0.53
2023-01-21T03:20:00.539Z,0.55
2023-01-21T03:21:04.173Z,0.52
2023-01-21T03:22:12.128Z,0.55
2023-01-21T03:23:17.231Z,0.59
2023-01-21T03:24:20.070Z,0.59
2023-01-21T03:25:22.911Z,0.56
2023-01-21T03:26:28.212Z,0.56
2023-01-21T03:27:32.269Z,0.60
2023-01-21T03:28:36.429Z,0.57
2023-01-21T03:29:40.293Z,0.56
2023-01-21T03:30:44.165Z,0.59
2023-01-21T03:31:48.052Z,0.62
2023-01-21T03:32:50.931Z,0.64
2023-01-21T03:33:53.795Z,0.65
2023-01-21T03:34:57.220Z,0.66
2023-01-21T03:36:02.078Z,0.68
2023-01-21T03:37:12.138Z,0.67
2023-01-21T03:38:18.807Z,0.65
2023-01-21T03:39:32.962Z,0.65
2023-01-21T03:40:43.661Z,0.66
2023-01-21T03:41:45.523Z,0.66
2023-01-21T03:42:50.618Z,0.66
2023-01-21T03:43:52.679Z,0.66
2023-01-21T03:44:54.842Z,0.67
2023-01-21T03:46:19.410Z,0.69
2023-01-21T03:47:31.959Z,0.68
2023-01-21T03:48:39.518Z,0.65
2023-01-21T03:49:44.253Z,0.65
2023-01-21T03:50:50.187Z,0.62
2023-01-21T03:51:54.208Z,0.58
2023-01-21T03:52:56.392Z,0.59
2023-01-21T03:53:59.000Z,0.61
2023-01-21T03:55:00.936Z,0.63
2023-01-21T03:56:02.927Z,0.65
2023-01-21T03:57:04.735Z,0.64
2023-01-21T03:58:06.604Z,0.64
2023-01-21T03:59:08.374Z,0.66
2023-01-21T04:00:10.565Z,0.68
2023-01-21T04:01:12.415Z,0.69
2023-01-21T04:02:19.403Z,0.69
2023-01-21T04:03:21.442Z,0.68
2023-01-21T04:04:23.234Z,0.69
2023-01-21T04:05:25.085Z,0.70
2023-01-21T04:06:26.896Z,0.65
2023-01-21T04:07:28.792Z,0.63
2023-01-21T04:08:30.590Z,0.56
2023-01-21T04:09:32.360Z,0.54
2023-01-21T04:10:34.183Z,0.53
2023-01-21T04:11:36.000Z,0.52
2023-01-21T04:12:37.815Z,0.49
2023-01-21T04:13:39.720Z,0.49
2023-01-21T04:14:41.495Z,0.44
2023-01-21T04:15:43.392Z,0.44
2023-01-21T04:16:45.295Z,0.43
2023-01-21T04:17:47.192Z,0.43
2023-01-21T04:18:49.166Z,0.42
2023-01-21T04:19:51.130Z,0.44
2023-01-21T04:20:53.128Z,0.44
2023-01-21T04:21:55.011Z,0.47
2023-01-21T04:22:56.873Z,0.47
2023-01-21T04:23:58.688Z,0.50
2023-01-21T04:25:00.577Z,0.50
2023-01-21T04:26:02.534Z,0.51
2023-01-21T04:27:04.397Z,0.53
2023-01-21T04:28:06.264Z,0.56
2023-01-21T04:29:08.201Z,0.57
2023-01-21T04:30:10.285Z,0.58
2023-01-21T04:31:12.028Z,0.60
2023-01-21T04:32:13.843Z,0.59
2023-01-21T04:33:15.828Z,0.60
2023-01-21T04:34:17.749Z,0.60
2023-01-21T04:35:19.677Z,0.56
2023-01-21T04:36:21.474Z,0.49
2023-01-21T04:37:23.296Z,0.50
2023-01-21T04:38:25.182Z,0.49
2023-01-21T04:39:26.946Z,0.49
2023-01-21T04:40:28.807Z,0.51
2023-01-21T04:41:30.537Z,0.53
2023-01-21T04:42:32.395Z,0.57
2023-01-21T04:43:34.403Z,0.58
2023-01-21T04:44:36.331Z,0.60
2023-01-21T04:45:38.191Z,0.63
2023-01-21T04:46:40.081Z,0.59
2023-01-21T04:47:42.900Z,0.59
2023-01-21T04:48:44.908Z,0.59
2023-01-21T04:49:49.041Z,0.62
2023-01-21T04:50:50.929Z,0.62
2023-01-21T04:51:52.861Z,0.63
2023-01-21T04:52:54.692Z,0.65
2023-01-21T04:53:56.575Z,0.66
2023-01-21T04:54:58.387Z,0.67
2023-01-21T04:56:00.271Z,0.64
2023-01-21T04:57:02.105Z,0.65
2023-01-21T04:58:03.945Z,0.65
2023-01-21T04:59:05.894Z,0.66
2023-01-21T05:00:08.846Z,0.65
2023-01-21T05:01:10.704Z,0.64
2023-01-21T05:02:12.544Z,0.57
2023-01-21T05:03:14.589Z,0.56
2023-01-21T05:04:16.404Z,0.56
2023-01-21T05:05:18.271Z,0.54
2023-01-21T05:06:20.201Z,0.50
2023-01-21T05:07:22.116Z,0.46
2023-01-21T05:08:23.898Z,0.47
2023-01-21T05:09:25.995Z,0.46
2023-01-21T05:10:27.911Z,0.46
2023-01-21T05:11:29.807Z,0.45
2023-01-21T05:12:31.660Z,0.46
2023-01-21T05:13:33.575Z,0.48
2023-01-21T05:14:35.838Z,0.47
2023-01-21T05:15:37.827Z,0.46
2023-01-21T05:16:39.752Z,0.45
2023-01-21T05:17:41.585Z,0.43
2023-01-21T05:18:46.381Z,0.40
2023-01-21T05:19:48.361Z,0.38
2023-01-21T05:20:50.135Z,0.40
2023-01-21T05:21:52.563Z,0.39
2023-01-21T05:22:54.337Z,0.35
2023-01-21T05:23:56.171Z,0.33
2023-01-21T05:24:59.880Z,0.33
2023-01-21T05:26:01.741Z,0.33
2023-01-21T05:27:03.623Z,0.35
2023-01-21T05:28:05.414Z,0.32
2023-01-21T05:29:07.202Z,0.29
2023-01-21T05:30:09.522Z,0.32
2023-01-21T05:31:11.476Z,0.29
2023-01-21T05:32:13.449Z,0.28
2023-01-21T05:33:15.284Z,0.30
2023-01-21T05:34:17.073Z,0.34
2023-01-21T05:35:20.468Z,0.34
2023-01-21T05:36:22.350Z,0.33
2023-01-21T05:37:24.310Z,0.37
2023-01-21T05:38:26.110Z,0.39
2023-01-21T05:39:27.931Z,0.42
2023-01-21T05:40:29.935Z,0.43
2023-01-21T05:41:31.972Z,0.45
2023-01-21T05:42:33.816Z,0.48
2023-01-21T05:43:35.624Z,0.46
2023-01-21T05:44:37.753Z,0.45
2023-01-21T05:45:39.592Z,0.41
2023-01-21T05:46:41.343Z,0.43
2023-01-21T05:47:43.340Z,0.40
2023-01-21T05:48:45.146Z,0.38
2023-01-21T05:49:46.995Z,0.39
2023-01-21T05:50:49.324Z,0.38
2023-01-21T05:51:51.167Z,0.38
2023-01-21T05:52:52.987Z,0.39
2023-01-21T05:53:55.845Z,0.39
2023-01-21T05:55:02.153Z,0.39
2023-01-21T05:56:04.922Z,0.41
2023-01-21T05:57:06.714Z,0.41
2023-01-21T05:58:08.661Z,0.41
2023-01-21T05:59:10.496Z,0.44
2023-01-21T06:00:12.640Z,0.41
2023-01-21T06:01:14.521Z,0.37
2023-01-21T06:02:16.390Z,0.34
2023-01-21T06:03:18.639Z,0.31
2023-01-21T06:04:23.054Z,0.29
2023-01-21T06:05:25.745Z,0.28
2023-01-21T06:06:27.584Z,0.29
2023-01-21T06:07:29.391Z,0.26
2023-01-21T06:08:31.267Z,0.25
2023-01-21T06:09:33.132Z,0.22
2023-01-21T06:10:34.969Z,0.20
2023-01-21T06:11:36.742Z,0.17
2023-01-21T06:12:38.577Z,0.17
2023-01-21T06:13:40.446Z,0.15
2023-01-21T06:14:42.234Z,0.18
2023-01-21T06:15:44.035Z,0.22
2023-01-21T06:16:45.814Z,0.22
2023-01-21T06:17:47.701Z,0.25
2023-01-21T06:18:49.580Z,0.25
2023-01-21T06:19:51.506Z,0.24
2023-01-21T06:20:53.356Z,0.22
2023-01-21T06:21:55.299Z,0.16
2023-01-21T06:22:59.409Z,0.17
2023-01-21T06:24:02.740Z,0.21
2023-01-21T06:25:04.727Z,0.22
2023-01-21T06:26:06.543Z,0.22
2023-01-21T06:27:08.512Z,0.21
2023-01-21T06:28:13.689Z,0.25
2023-01-21T06:29:15.467Z,0.26
2023-01-21T06:30:17.609Z,0.28
2023-01-21T06:31:19.688Z,0.30
2023-01-21T06:32:21.777Z,0.28
2023-01-21T06:33:23.633Z,0.29
2023-01-21T06:34:25.492Z,0.27
2023-01-21T06:35:27.280Z,0.23
2023-01-21T06:36:29.102Z,0.18
2023-01-21T06:37:31.010Z,0.21
2023-01-21T06:38:36.451Z,0.20
2023-01-21T06:39:39.023Z,0.18
2023-01-21T06:40:40.822Z,0.21
2023-01-21T06:41:42.724Z,0.21
2023-01-21T06:42:48.120Z,0.18
2023-01-21T06:43:49.931Z,0.17
2023-01-21T06:44:52.017Z,0.16
2023-01-21T06:45:53.835Z,0.17
2023-01-21T06:47:02.760Z,0.18
2023-01-21T06:48:05.052Z,0.16
2023-01-21T06:49:06.892Z,0.13
2023-01-21T06:50:10.272Z,0.14
2023-01-21T06:51:12.165Z,0.15
2023-01-21T06:52:13.953Z,0.21
2023-01-21T06:53:15.895Z,0.25
2023-01-21T06:54:17.745Z,0.24
2023-01-21T06:55:19.629Z,0.16
2023-01-21T06:56:21.931Z,0.17
2023-01-21T06:57:24.139Z,0.17
2023-01-21T06:58:26.056Z,0.21
2023-01-21T06:59:28.380Z,0.25
2023-01-21T07:00:30.365Z,0.23
2023-01-21T07:01:32.733Z,0.23
2023-01-21T07:02:35.157Z,0.26
2023-01-21T07:03:37.064Z,0.26
2023-01-21T07:04:38.895Z,0.26
2023-01-21T07:05:40.658Z,0.28
2023-01-21T07:06:42.443Z,0.25
2023-01-21T07:07:44.287Z,0.27
2023-01-21T07:08:46.164Z,0.24
2023-01-21T07:09:47.974Z,0.22
2023-01-21T07:10:49.834Z,0.18
2023-01-21T07:11:51.624Z,0.18
2023-01-21T07:12:53.538Z,0.19
2023-01-21T07:13:55.382Z,0.18
2023-01-21T07:14:57.189Z,0.17
2023-01-21T07:16:00.084Z,0.17
2023-01-21T07:17:01.918Z,0.20
2023-01-21T07:18:03.950Z,0.20
2023-01-21T07:19:05.804Z,0.20
2023-01-21T07:20:08.247Z,0.22
2023-01-21T07:21:10.043Z,0.25
2023-01-21T07:22:11.938Z,0.26
2023-01-21T07:23:13.792Z,0.28
2023-01-21T07:24:15.602Z,0.31
2023-01-21T07:25:17.619Z,0.33
2023-01-21T07:26:19.767Z,0.33
2023-01-21T07:27:21.661Z,0.32
2023-01-21T07:28:23.689Z,0.31
2023-01-21T07:29:25.702Z,0.34
2023-01-21T07:30:27.600Z,0.33
2023-01-21T07:31:29.463Z,0.36
2023-01-21T07:32:31.301Z,0.34
2023-01-21T07:33:33.236Z,0.33
2023-01-21T07:34:35.101Z,0.33
2023-01-21T07:35:36.956Z,0.30
2023-01-21T07:36:38.765Z,0.30
2023-01-21T07:37:41.151Z,0.32
2023-01-21T07:38:43.106Z,0.31
2023-01-21T07:39:45.004Z,0.31
2023-01-21T07:40:50.121Z,0.30
2023-01-21T07:41:51.916Z,0.31
2023-01-21T07:42:54.798Z,0.33
2023-01-21T07:43:56.890Z,0.32
2023-01-21T07:44:59.852Z,0.32
2023-01-21T07:46:01.653Z,0.30
2023-01-21T07:47:03.548Z,0.27
2023-01-21T07:48:05.623Z,0.26
2023-01-21T07:49:07.491Z,0.24
2023-01-21T07:50:09.604Z,0.24
2023-01-21T07:51:11.941Z,0.26
2023-01-21T07:52:13.906Z,0.25
2023-01-21T07:53:15.826Z,0.27
2023-01-21T07:54:17.696Z,0.30
2023-01-21T07:55:19.925Z,0.34
2023-01-21T07:56:21.958Z,0.32
2023-01-21T07:57:23.715Z,0.28
2023-01-21T07:58:25.566Z,0.27
2023-01-21T07:59:27.382Z,0.30
2023-01-21T08:00:29.544Z,0.28
2023-01-21T08:01:32.539Z,0.28
2023-01-21T08:02:34.578Z,0.31
2023-01-21T08:03:37.338Z,0.32
2023-01-21T08:04:39.148Z,0.30
2023-01-21T08:05:41.070Z,0.28
2023-01-21T08:06:42.907Z,0.27
2023-01-21T08:07:44.681Z,0.29
2023-01-21T08:08:46.539Z,0.29
2023-01-21T08:09:48.384Z,0.28
2023-01-21T08:10:53.647Z,0.29
2023-01-21T08:11:55.517Z,0.30
2023-01-21T08:12:57.428Z,0.30
2023-01-21T08:13:59.257Z,0.32
2023-01-21T08:15:01.202Z,0.31
2023-01-21T08:16:03.194Z,0.29
2023-01-21T08:17:04.919Z,0.30
2023-01-21T08:18:06.792Z,0.31
2023-01-21T08:19:08.629Z,0.32
2023-01-21T08:20:11.591Z,0.32
2023-01-21T08:21:13.479Z,0.31
2023-01-21T08:22:15.427Z,0.30
2023-01-21T08:23:17.301Z,0.32
2023-01-21T08:24:19.268Z,0.29
2023-01-21T08:25:21.099Z,0.26
2023-01-21T08:26:25.564Z,0.27
2023-01-21T08:27:27.543Z,0.21
2023-01-21T08:28:29.379Z,0.25
2023-01-21T08:29:31.210Z,0.30
2023-01-21T08:30:33.439Z,0.31
2023-01-21T08:31:35.523Z,0.29
2023-01-21T08:32:37.404Z,0.29
2023-01-21T08:33:39.597Z,0.28
2023-01-21T08:34:41.519Z,0.31
2023-01-21T08:35:43.371Z,0.34
2023-01-21T08:36:45.177Z,0.35
2023-01-21T08:37:47.620Z,0.34
2023-01-21T08:38:53.051Z,0.33
2023-01-21T08:39:54.813Z,0.33
2023-01-21T08:40:58.551Z,0.31
2023-01-21T08:42:00.463Z,0.32
2023-01-21T08:43:03.013Z,0.33
2023-01-21T08:44:04.958Z,0.34
2023-01-21T08:45:07.152Z,0.34
2023-01-21T08:46:08.977Z,0.32
2023-01-21T08:47:10.721Z,0.34
2023-01-21T08:48:12.688Z,0.35
2023-01-21T08:49:14.553Z,0.35
2023-01-21T08:50:16.736Z,0.35
2023-01-21T08:51:18.632Z,0.37
2023-01-21T08:52:21.826Z,0.38
2023-01-21T08:53:23.702Z,0.39
2023-01-21T08:54:25.873Z,0.40
2023-01-21T08:55:27.750Z,0.38
2023-01-21T08:56:29.551Z,0.34
2023-01-21T08:57:31.518Z,0.36
2023-01-21T08:58:34.129Z,0.38
2023-01-21T08:59:36.145Z,0.39
2023-01-21T09:00:37.963Z,0.32
2023-01-21T09:01:42.694Z,0.34
2023-01-21T09:02:44.530Z,0.36
2023-01-21T09:03:46.375Z,0.34
2023-01-21T09:04:50.896Z,0.37
2023-01-21T09:05:53.212Z,0.37
2023-01-21T09:06:54.940Z,0.38
2023-01-21T09:07:58.274Z,0.40
2023-01-21T09:09:00.163Z,0.41
2023-01-21T09:10:02.522Z,0.45
2023-01-21T09:11:07.201Z,0.42
2023-01-21T09:12:09.089Z,0.43
2023-01-21T09:13:11.068Z,0.47
2023-01-21T09:14:12.962Z,0.50
2023-01-21T09:15:14.883Z,0.53
2023-01-21T09:16:17.982Z,0.53
2023-01-21T09:17:20.177Z,0.54
2023-01-21T09:18:22.126Z,0.56
2023-01-21T09:19:24.266Z,0.53
2023-01-21T09:20:26.151Z,0.51
2023-01-21T09:21:29.586Z,0.50
2023-01-21T09:22:31.375Z,0.50
2023-01-21T09:23:35.144Z,0.56
2023-01-21T09:24:36.929Z,0.60
2023-01-21T09:25:38.781Z,0.64
2023-01-21T09:26:44.290Z,0.59
2023-01-21T09:27:46.149Z,0.56
2023-01-21T09:28:54.468Z,0.59
2023-01-21T09:29:56.232Z,0.64
2023-01-21T09:30:59.359Z,0.65
2023-01-21T09:32:01.621Z,0.62
2023-01-21T09:33:03.552Z,0.65
2023-01-21T09:34:06.154Z,0.63
2023-01-21T09:35:08.580Z,0.62
2023-01-21T09:36:13.355Z,0.62
2023-01-21T09:37:15.217Z,0.63
2023-01-21T09:38:17.180Z,0.62
2023-01-21T09:39:19.079Z,0.60
2023-01-21T09:40:20.897Z,0.62
2023-01-21T09:41:25.687Z,0.62
2023-01-21T09:42:28.837Z,0.62
2023-01-21T09:43:40.687Z,0.67
2023-01-21T09:44:45.101Z,0.66
2023-01-21T09:45:47.328Z,0.66
2023-01-21T09:46:55.175Z,0.68
2023-01-21T09:47:57.339Z,0.71
2023-01-21T09:49:01.337Z,0.73
2023-01-21T09:50:06.351Z,0.76
2023-01-21T09:51:17.346Z,0.78
2023-01-21T09:52:19.205Z,0.75
2023-01-21T09:53:27.037Z,0.77
2023-01-21T09:54:30.707Z,0.77
2023-01-21T09:55:53.368Z,0.77
2023-01-21T09:57:21.203Z,0.80
2023-01-21T09:58:27.152Z,0.80
2023-01-21T09:59:40.291Z,0.79
2023-01-21T10:01:00.416Z,0.82
2023-01-21T10:02:06.290Z,0.65
2023-01-21T10:03:20.218Z,0.71
2023-01-21T10:04:41.514Z,0.77
2023-01-21T10:06:02.388Z,0.83
2023-01-21T10:07:10.823Z,0.87
2023-01-21T10:08:31.325Z,0.85
2023-01-21T10:09:39.183Z,0.86
2023-01-21T10:10:47.325Z,0.88
2023-01-21T10:12:01.115Z,0.89
2023-01-21T10:13:21.300Z,0.90
2023-01-21T10:14:23.044Z,0.92
2023-01-21T10:15:35.448Z,0.91
2023-01-21T10:16:43.524Z,0.89
2023-01-21T10:18:05.900Z,0.84
2023-01-21T10:19:13.199Z,0.78
2023-01-21T10:20:19.461Z,0.78
2023-01-21T10:21:45.826Z,0.78
2023-01-21T10:22:51.448Z,0.77
2023-01-21T10:23:57.832Z,0.79
2023-01-21T10:25:01.606Z,0.78
2023-01-21T10:26:06.927Z,0.72
2023-01-21T10:27:11.534Z,0.69
2023-01-21T10:28:17.080Z,0.70
2023-01-21T10:29:20.145Z,0.72
2023-01-21T10:30:23.696Z,0.71
2023-01-21T10:31:29.857Z,0.66
2023-01-21T10:32:33.196Z,0.67
2023-01-21T10:33:35.096Z,0.72
2023-01-21T10:34:40.297Z,0.75
2023-01-21T10:35:53.608Z,0.74
2023-01-21T10:36:58.191Z,0.73
2023-01-21T10:38:18.888Z,0.74
2023-01-21T10:39:45.382Z,0.77
2023-01-21T10:41:02.394Z,0.75
2023-01-21T10:42:10.527Z,0.79
2023-01-21T10:43:15.478Z,0.82
2023-01-21T10:44:36.035Z,0.80
2023-01-21T10:45:43.975Z,0.82
2023-01-21T10:46:51.661Z,0.83
2023-01-21T10:48:12.669Z,0.84
2023-01-21T10:49:22.719Z,0.82
2023-01-21T10:50:40.920Z,0.78
2023-01-21T10:51:52.832Z,0.81
2023-01-21T10:53:01.659Z,0.80
2023-01-21T10:54:22.744Z,0.80
2023-01-21T10:55:43.184Z,0.79
2023-01-21T10:57:07.867Z,0.82
2023-01-21T10:58:12.650Z,0.81
2023-01-21T10:59:27.214Z,0.76
2023-01-21T11:00:32.835Z,0.76
2023-01-21T11:01:42.936Z,0.75
2023-01-21T11:02:50.593Z,0.75
2023-01-21T11:03:54.541Z,0.69
2023-01-21T11:04:58.543Z,0.68
2023-01-21T11:06:01.058Z,0.69
2023-01-21T11:07:07.127Z,0.69
2023-01-21T11:08:13.994Z,0.69
2023-01-21T11:09:15.971Z,0.72
2023-01-21T11:10:23.463Z,0.72
2023-01-21T11:11:27.594Z,0.68
2023-01-21T11:12:30.906Z,0.66
2023-01-21T11:13:32.889Z,0.61
2023-01-21T11:14:34.953Z,0.59
2023-01-21T11:15:37.733Z,0.57
2023-01-21T11:16:39.585Z,0.58
2023-01-21T11:17:42.567Z,0.58
2023-01-21T11:18:44.465Z,0.62
2023-01-21T11:19:57.679Z,0.63
2023-01-21T11:21:01.034Z,0.63
2023-01-21T11:22:04.629Z,0.62
2023-01-21T11:23:07.161Z,0.59
2023-01-21T11:24:22.628Z,0.58
2023-01-21T11:25:35.737Z,0.54
2023-01-21T11:26:37.570Z,0.55
2023-01-21T11:27:39.454Z,0.60
2023-01-21T11:28:41.245Z,0.60
2023-01-21T11:29:43.170Z,0.56
2023-01-21T11:30:51.184Z,0.55
2023-01-21T11:32:05.284Z,0.54
2023-01-21T11:33:19.108Z,0.53
2023-01-21T11:34:22.348Z,0.50
2023-01-21T11:35:24.580Z,0.48
2023-01-21T11:36:26.509Z,0.41
2023-01-21T11:37:29.270Z,0.34
2023-01-21T11:38:34.719Z,0.39
2023-01-21T11:39:41.936Z,0.43
2023-01-21T11:40:43.822Z,0.40
2023-01-21T11:41:52.459Z,0.41
2023-01-21T11:42:55.475Z,0.43
2023-01-21T11:44:16.577Z,0.44
2023-01-21T11:45:27.419Z,0.46
2023-01-21T11:46:32.405Z,0.43
2023-01-21T11:47:39.107Z,0.40
2023-01-21T11:48:44.279Z,0.38
2023-01-21T11:49:47.217Z,0.38
2023-01-21T11:50:49.109Z,0.38
2023-01-21T11:51:51.435Z,0.40
2023-01-21T11:53:19.262Z,0.38
2023-01-21T11:54:23.287Z,0.37
2023-01-21T11:55:25.775Z,0.34
2023-01-21T11:56:27.611Z,0.31
2023-01-21T11:57:30.503Z,0.25
2023-01-21T11:58:34.099Z,0.23
2023-01-21T11:59:43.818Z,0.27
2023-01-21T12:00:47.343Z,0.28
2023-01-21T12:02:04.059Z,0.28
2023-01-21T12:03:06.227Z,0.26
2023-01-21T12:04:13.997Z,0.26
2023-01-21T12:05:28.368Z,0.29
2023-01-21T12:06:31.051Z,0.29
2023-01-21T12:07:35.203Z,0.32
2023-01-21T12:08:38.077Z,0.34
2023-01-21T12:09:39.869Z,0.31
2023-01-21T12:10:46.352Z,0.31
2023-01-21T12:12:00.816Z,0.28
2023-01-21T12:13:18.155Z,0.24
2023-01-21T12:14:31.058Z,0.25
2023-01-21T12:15:48.149Z,0.27
2023-01-21T12:17:08.793Z,0.25
2023-01-21T12:18:28.873Z,0.30
2023-01-21T12:19:30.695Z,0.26
2023-01-21T12:20:47.653Z,0.21
2023-01-21T12:22:08.227Z,0.19
2023-01-21T12:23:23.068Z,0.19
2023-01-21T12:24:24.861Z,0.19
2023-01-21T12:25:38.525Z,0.23
2023-01-21T12:26:45.689Z,0.28
2023-01-21T12:27:55.219Z,0.27
2023-01-21T12:28:59.772Z,0.26
2023-01-21T12:30:04.591Z,0.28
2023-01-21T12:31:11.014Z,0.31
2023-01-21T12:32:23.702Z,0.32
2023-01-21T12:33:31.608Z,0.30
2023-01-21T12:34:36.479Z,0.24
2023-01-21T12:35:49.630Z,0.25
2023-01-21T12:36:56.451Z,0.27
2023-01-21T12:38:05.977Z,0.29
2023-01-21T12:39:13.600Z,0.31
2023-01-21T12:40:22.956Z,0.28
2023-01-21T12:41:31.121Z,0.28
2023-01-21T12:42:37.849Z,0.32
2023-01-21T12:43:51.242Z,0.33
2023-01-21T12:44:59.584Z,0.33
2023-01-21T12:46:11.250Z,0.31
2023-01-21T12:47:18.964Z,0.31
2023-01-21T12:48:28.967Z,0.34
2023-01-21T12:49:33.918Z,0.33
2023-01-21T12:50:41.367Z,0.33
2023-01-21T12:51:44.407Z,0.33
2023-01-21T12:53:09.109Z,0.33
2023-01-21T12:54:16.556Z,0.31
2023-01-21T12:55:28.717Z,0.33
2023-01-21T12:56:33.573Z,0.34
2023-01-21T12:57:42.110Z,0.35
2023-01-21T12:58:56.560Z,0.31
2023-01-21T12:59:58.313Z,0.31
2023-01-21T13:01:26.239Z,0.31
2023-01-21T13:02:32.545Z,0.29
2023-01-21T13:03:46.254Z,0.28
2023-01-21T13:04:53.927Z,0.28
2023-01-21T13:06:03.542Z,0.23
2023-01-21T13:07:11.874Z,0.24
2023-01-21T13:08:32.145Z,0.23
2023-01-21T13:09:33.902Z,0.19
2023-01-21T13:10:41.313Z,0.18
2023-01-21T13:11:52.256Z,0.20
2023-01-21T13:12:58.719Z,0.17
2023-01-21T13:14:03.660Z,0.16
2023-01-21T13:15:24.223Z,0.22
2023-01-21T13:16:26.818Z,0.23
2023-01-21T13:17:32.167Z,0.25
2023-01-21T13:18:38.257Z,0.28
2023-01-21T13:19:40.237Z,0.30
2023-01-21T13:20:45.540Z,0.33
2023-01-21T13:21:47.375Z,0.29
2023-01-21T13:22:55.065Z,0.32
2023-01-21T13:24:17.095Z,0.32
2023-01-21T13:25:41.374Z,0.28
2023-01-21T13:26:43.108Z,0.28
2023-01-21T13:27:55.946Z,0.29
2023-01-21T13:29:03.305Z,0.27
2023-01-21T13:30:23.737Z,0.27
2023-01-21T13:31:28.970Z,0.29
2023-01-21T13:32:46.314Z,0.31
2023-01-21T13:34:08.296Z,0.35
2023-01-21T13:35:23.399Z,0.36
2023-01-21T13:36:25.181Z,0.36
2023-01-21T13:37:30.037Z,0.39
2023-01-21T13:38:37.857Z,0.35
2023-01-21T13:39:51.847Z,0.37
2023-01-21T13:41:08.676Z,0.41
2023-01-21T13:42:25.889Z,0.40
2023-01-21T13:43:30.470Z,0.40
2023-01-21T13:44:50.139Z,0.38
2023-01-21T13:45:57.888Z,0.40
2023-01-21T13:47:08.991Z,0.36
2023-01-21T13:48:10.739Z,0.37
2023-01-21T13:49:22.252Z,0.32
2023-01-21T13:50:27.088Z,0.34
2023-01-21T13:51:50.372Z,0.35
2023-01-21T13:53:24.555Z,0.37
2023-01-21T13:54:32.047Z,0.34
2023-01-21T13:55:52.132Z,0.34
2023-01-21T13:57:00.128Z,0.37
2023-01-21T13:58:13.727Z,0.41
2023-01-21T13:59:19.439Z,0.44
2023-01-21T14:00:28.700Z,0.47
2023-01-21T14:01:41.827Z,0.44
2023-01-21T14:02:54.142Z,0.42
2023-01-21T14:03:59.159Z,0.41
2023-01-21T14:05:10.843Z,0.34
2023-01-21T14:06:18.458Z,0.34
2023-01-21T14:07:29.151Z,0.36
2023-01-21T14:08:33.817Z,0.34
2023-01-21T14:09:38.851Z,0.36
2023-01-21T14:10:44.441Z,0.34
2023-01-21T14:11:50.404Z,0.33
2023-01-21T14:13:10.952Z,0.26
2023-01-21T14:14:12.697Z,0.31
2023-01-21T14:15:37.341Z,0.30
2023-01-21T14:17:02.944Z,0.29
2023-01-21T14:18:07.620Z,0.30
2023-01-21T14:19:36.034Z,0.30
2023-01-21T14:20:56.567Z,0.28
2023-01-21T14:22:10.496Z,0.31
2023-01-21T14:23:21.355Z,0.29
2023-01-21T14:24:38.253Z,0.33
2023-01-21T14:25:39.998Z,0.34
2023-01-21T14:26:44.869Z,0.36
2023-01-21T14:28:05.460Z,0.36
2023-01-21T14:29:07.381Z,0.34
2023-01-21T14:30:11.676Z,0.35